South Casco, Maine
Current Conditions -  °F | °C
As of 9:15 AM on Thursday 27 Nov 2014 (Local Time) from KLEW Reporting Station
Clear Clear  
Wind Chill: 20°   Ceiling: Unl
Heat Index: 30°   Visibility: 10mi
Dew Point: 25°   Wind: 13mph
Humidity: 80%   Direction: 320°NW
Pressure: 29.86"   Gusts: 16mph
Location:  43.91°N, 70.52°W
Report Text: KLEW 271415Z AUTO 32011G14KT 10SM CLR M01/M04 A2986 RMK AO1
Loading
Personal Weather Stations






























Interactive Weather Map New forecast layout! Learn more

10-Day Weather Forecast

Advertisements
Track Severe Weather on mobile